Blue Star 1 — SWET — position and weather

sailwx.info

Track history (hours):
 
Tides and Currents Weather Stations Pressure Air Temp Water Temp Dewpoint Dewpoint Depression Visibility Wind Speed Wind Dir Waves Ship Positions

Blue Star 1

Last reported at 2016-Jul-14 21:25 UTC. Time now 2016-Aug-27 09:56 UTC.
Position N 38°06' E 024°51'.
Warning: this ship's position is 43 days out of date.

Length 177 m; draft 6.5 m.

Type: Passenger vessel. MMSI: 239710000.

Date/timePositionNaut miles runAvg speedWind from/ knotsBaromVisibWave heightAir tempDewpointWater temp
2016-Jul-14 21:25N 38°06' E 024°51'2225.3
2016-Jul-14 20:34N 37°53' E 024°29'2724.8
2016-Jul-14 19:29N 37°37' E 024°02'2122.5
2016-Jul-14 18:34N 37°47' E 023°38'10 9.9
2016-Jul-14 17:33N 37°56' E 023°38'0 0.0
2016-Jul-14 16:34N 37°56' E 023°38'0 0.0
2016-Jul-14 15:33N 37°56' E 023°38'0 0.0
2016-Jul-14 14:33N 37°56' E 023°38'0 0.0
2016-Jul-14 13:33N 37°56' E 023°38'0 0.0
2016-Jul-14 12:33N 37°56' E 023°38'0 0.0
2016-Jul-14 11:33N 37°56' E 023°38'0 0.0
2016-Jul-14 10:33N 37°56' E 023°38'0 0.0
2016-Jul-14 08:24N 37°56' E 023°38'0 0.0
2016-Jul-14 07:33N 37°56' E 023°38'0 0.0
2016-Jul-14 04:33N 37°56' E 023°38'0 0.0
2016-Jul-14 03:33N 37°56' E 023°38'1514.5
2016-Jul-14 02:33N 37°43' E 023°45'2418.9
2016-Jul-14 01:18N 37°43' E 024°15'1821.8
2016-Jul-14 00:27N 37°54' E 024°34'3 0.1
2016-Jul-12 21:04N 37°52' E 024°30'3120.3
2016-Jul-12 19:33N 37°37' E 023°56'1919.3
2016-Jul-12 18:34N 37°50' E 023°37'6 6.4
2016-Jul-12 17:33N 37°56' E 023°38'0 0.0
2016-Jul-12 16:33N 37°56' E 023°38'9 9.1
2016-Jul-12 15:34N 37°48' E 023°41'3124.4
2016-Jul-12 14:17N 37°31' E 024°14'2425.5
2016-Jul-12 13:21N 37°31' E 024°44'2111.5
2016-Jul-12 11:33N 37°27' E 025°09'8 8.1
2016-Jul-12 10:34N 37°28' E 025°19'9 8.7
2016-Jul-12 09:34N 37°27' E 025°08'15 7.6
2016-Jul-12 07:33N 37°32' E 024°50'2824.4
2016-Jul-12 06:24N 37°30' E 024°15'2225.6
2016-Jul-12 05:33N 37°38' E 023°49'2120.9
2016-Jul-12 04:33N 37°56' E 023°38'0 0.2
2016-Jul-12 03:33N 37°56' E 023°38'0 0.1
2016-Jul-12 02:34N 37°56' E 023°38'1919.0
2016-Jul-12 01:34N 37°39' E 023°49'2322.9
2016-Jul-12 00:34N 37°44' E 024°17'2625.7
2016-Jul-11 23:33N 37°60' E 024°43'2924.7
2016-Jul-11 22:22N 38°03' E 025°19'18 0.8
2016-Jul-10 22:05N 38°02' E 024°56'1220.0
2016-Jul-10 21:29N 37°59' E 024°41'2021.5
2016-Jul-10 20:34N 37°47' E 024°21'2220.5
2016-Jul-10 19:30N 37°37' E 023°57'1818.8
2016-Jul-10 18:33N 37°47' E 023°39'9 9.3
2016-Jul-10 17:33N 37°56' E 023°38'0 0.0
2016-Jul-10 16:33N 37°56' E 023°38'1717.1
2016-Jul-10 15:33N 37°41' E 023°46'2622.5
2016-Jul-10 14:24N 37°45' E 024°18'31 1.8
2016-Jul-09 21:22N 38°02' E 024°52'1923.7
2016-Jul-09 20:34N 37°52' E 024°30'2524.3
2016-Jul-09 19:31N 37°38' E 024°05'2222.5
2016-Jul-09 18:34N 37°46' E 023°39'1110.8
2016-Jul-09 17:33N 37°56' E 023°38'0 0.0
2016-Jul-09 16:33N 37°56' E 023°38'0 0.0
2016-Jul-09 15:33N 37°56' E 023°38'9 9.2
2016-Jul-09 14:33N 37°48' E 023°41'3020.8
2016-Jul-09 13:06N 37°45' E 024°19'28 1.8
2016-Jul-08 21:24N 38°02' E 024°48'2023.9
2016-Jul-08 20:34N 37°50' E 024°27'2423.2
2016-Jul-08 19:32N 37°37' E 024°02'2122.0
2016-Jul-08 18:33N 37°48' E 023°38'9 8.5
2016-Jul-08 17:33N 37°56' E 023°38'0 0.0
2016-Jul-08 16:33N 37°56' E 023°38'1 1.1
2016-Jul-08 15:34N 37°56' E 023°37'2222.2
2016-Jul-08 14:33N 37°38' E 023°54'2423.7
2016-Jul-08 13:34N 37°46' E 024°21'31 1.9
2016-Jul-07 21:29N 38°06' E 024°51'2324.2
2016-Jul-07 20:33N 37°52' E 024°29'2424.0
2016-Jul-07 19:33N 37°37' E 024°05'2322.7
2016-Jul-07 18:34N 37°46' E 023°39'1010.3
2016-Jul-07 17:33N 37°56' E 023°38'0 0.0
2016-Jul-07 16:33N 37°56' E 023°38'0 0.0
2016-Jul-07 15:33N 37°56' E 023°38'0 0.0
2016-Jul-07 14:33N 37°56' E 023°38'0 0.0
2016-Jul-07 13:33N 37°56' E 023°38'0 0.0
2016-Jul-07 12:33N 37°56' E 023°38'0 0.0
2016-Jul-07 11:33N 37°56' E 023°38'0 0.0
2016-Jul-07 10:33N 37°56' E 023°38'0 0.0
2016-Jul-07 09:33N 37°56' E 023°38'0 0.0
2016-Jul-07 08:21N 37°56' E 023°38'0 0.0
2016-Jul-07 07:33N 37°56' E 023°38'0 0.0
2016-Jul-07 06:33N 37°56' E 023°38'0 0.0
2016-Jul-07 05:33N 37°56' E 023°38'0 0.0
2016-Jul-07 04:33N 37°56' E 023°38'0 0.0
2016-Jul-07 03:33N 37°56' E 023°38'1313.0
2016-Jul-07 02:33N 37°44' E 023°43'2020.2
2016-Jul-07 01:33N 37°38' E 024°08'2322.9
2016-Jul-07 00:34N 37°52' E 024°31'2121.1
2016-Jul-06 23:33N 38°02' E 024°55'5 0.2
2016-Jul-05 22:18N 38°02' E 025°00'1621.0
2016-Jul-05 21:32N 37°59' E 024°40'2020.5
2016-Jul-05 20:33N 37°46' E 024°20'2120.4
2016-Jul-05 19:32N 37°37' E 023°57'1919.7
2016-Jul-05 18:33N 37°49' E 023°37'8 7.6
2016-Jul-05 17:33N 37°56' E 023°38'0 0.0
2016-Jul-05 16:33N 37°56' E 023°38'3 2.9
2016-Jul-05 15:34N 37°54' E 023°38'2323.2
2016-Jul-05 14:33N 37°36' E 023°58'3724.8
2016-Jul-05 13:04N 37°31' E 024°44'1711.1
2016-Jul-05 11:33N 37°27' E 025°04'1212.0
2016-Jul-05 10:33N 37°28' E 025°19'2 1.7
2016-Jul-05 09:34N 37°27' E 025°17'2411.8
2016-Jul-05 07:34N 37°32' E 024°48'2724.4
2016-Jul-05 06:28N 37°30' E 024°14'3920.4
2016-Jul-05 04:33N 37°56' E 023°38'0 0.0
2016-Jul-05 03:33N 37°56' E 023°38'0 0.0
2016-Jul-05 02:33N 37°56' E 023°38'1717.4
2016-Jul-05 01:34N 37°41' E 023°47'2222.4
2016-Jul-05 00:34N 37°43' E 024°15'2726.2
2016-Jul-04 23:31N 38°00' E 024°43'  
Track history (hours):
 
Tides and Currents Weather Stations Pressure Air Temp Water Temp Dewpoint Dewpoint Depression Visibility Wind Speed Wind Dir Waves Ship Positions

Blue Star 1

Last reported at 2016-Jul-14 21:25 UTC. Time now 2016-Aug-27 09:56 UTC.
Position N 38°06' E 024°51'.
Warning: this ship's position is 43 days out of date.

Length 177 m; draft 6.5 m.

Type: Passenger vessel. MMSI: 239710000.

Date/timePositionNaut miles runAvg speedWind from/ knotsBaromVisibWave heightAir tempDewpointWater temp
2016-Jul-14 21:25N 38°06' E 024°51'2225.3
2016-Jul-14 20:34N 37°53' E 024°29'2724.8
2016-Jul-14 19:29N 37°37' E 024°02'2122.5
2016-Jul-14 18:34N 37°47' E 023°38'10 9.9
2016-Jul-14 17:33N 37°56' E 023°38'0 0.0
2016-Jul-14 16:34N 37°56' E 023°38'0 0.0
2016-Jul-14 15:33N 37°56' E 023°38'0 0.0
2016-Jul-14 14:33N 37°56' E 023°38'0 0.0
2016-Jul-14 13:33N 37°56' E 023°38'0 0.0
2016-Jul-14 12:33N 37°56' E 023°38'0 0.0
2016-Jul-14 11:33N 37°56' E 023°38'0 0.0
2016-Jul-14 10:33N 37°56' E 023°38'0 0.0
2016-Jul-14 08:24N 37°56' E 023°38'0 0.0
2016-Jul-14 07:33N 37°56' E 023°38'0 0.0
2016-Jul-14 04:33N 37°56' E 023°38'0 0.0
2016-Jul-14 03:33N 37°56' E 023°38'1514.5
2016-Jul-14 02:33N 37°43' E 023°45'2418.9
2016-Jul-14 01:18N 37°43' E 024°15'1821.8
2016-Jul-14 00:27N 37°54' E 024°34'3 0.1
2016-Jul-12 21:04N 37°52' E 024°30'3120.3
2016-Jul-12 19:33N 37°37' E 023°56'1919.3
2016-Jul-12 18:34N 37°50' E 023°37'6 6.4
2016-Jul-12 17:33N 37°56' E 023°38'0 0.0
2016-Jul-12 16:33N 37°56' E 023°38'9 9.1
2016-Jul-12 15:34N 37°48' E 023°41'3124.4
2016-Jul-12 14:17N 37°31' E 024°14'2425.5
2016-Jul-12 13:21N 37°31' E 024°44'2111.5
2016-Jul-12 11:33N 37°27' E 025°09'8 8.1
2016-Jul-12 10:34N 37°28' E 025°19'9 8.7
2016-Jul-12 09:34N 37°27' E 025°08'15 7.6
2016-Jul-12 07:33N 37°32' E 024°50'2824.4
2016-Jul-12 06:24N 37°30' E 024°15'2225.6
2016-Jul-12 05:33N 37°38' E 023°49'2120.9
2016-Jul-12 04:33N 37°56' E 023°38'0 0.2
2016-Jul-12 03:33N 37°56' E 023°38'0 0.1
2016-Jul-12 02:34N 37°56' E 023°38'1919.0
2016-Jul-12 01:34N 37°39' E 023°49'2322.9
2016-Jul-12 00:34N 37°44' E 024°17'2625.7
2016-Jul-11 23:33N 37°60' E 024°43'2924.7
2016-Jul-11 22:22N 38°03' E 025°19'18 0.8
2016-Jul-10 22:05N 38°02' E 024°56'1220.0
2016-Jul-10 21:29N 37°59' E 024°41'2021.5
2016-Jul-10 20:34N 37°47' E 024°21'2220.5
2016-Jul-10 19:30N 37°37' E 023°57'1818.8
2016-Jul-10 18:33N 37°47' E 023°39'9 9.3
2016-Jul-10 17:33N 37°56' E 023°38'0 0.0
2016-Jul-10 16:33N 37°56' E 023°38'1717.1
2016-Jul-10 15:33N 37°41' E 023°46'2622.5
2016-Jul-10 14:24N 37°45' E 024°18'31 1.8
2016-Jul-09 21:22N 38°02' E 024°52'1923.7
2016-Jul-09 20:34N 37°52' E 024°30'2524.3
2016-Jul-09 19:31N 37°38' E 024°05'2222.5
2016-Jul-09 18:34N 37°46' E 023°39'1110.8
2016-Jul-09 17:33N 37°56' E 023°38'0 0.0
2016-Jul-09 16:33N 37°56' E 023°38'0 0.0
2016-Jul-09 15:33N 37°56' E 023°38'9 9.2
2016-Jul-09 14:33N 37°48' E 023°41'3020.8
2016-Jul-09 13:06N 37°45' E 024°19'28 1.8
2016-Jul-08 21:24N 38°02' E 024°48'2023.9
2016-Jul-08 20:34N 37°50' E 024°27'2423.2
2016-Jul-08 19:32N 37°37' E 024°02'2122.0
2016-Jul-08 18:33N 37°48' E 023°38'9 8.5
2016-Jul-08 17:33N 37°56' E 023°38'0 0.0
2016-Jul-08 16:33N 37°56' E 023°38'1 1.1
2016-Jul-08 15:34N 37°56' E 023°37'2222.2
2016-Jul-08 14:33N 37°38' E 023°54'2423.7
2016-Jul-08 13:34N 37°46' E 024°21'31 1.9
2016-Jul-07 21:29N 38°06' E 024°51'2324.2
2016-Jul-07 20:33N 37°52' E 024°29'2424.0
2016-Jul-07 19:33N 37°37' E 024°05'2322.7
2016-Jul-07 18:34N 37°46' E 023°39'1010.3
2016-Jul-07 17:33N 37°56' E 023°38'0 0.0
2016-Jul-07 16:33N 37°56' E 023°38'0 0.0
2016-Jul-07 15:33N 37°56' E 023°38'0 0.0
2016-Jul-07 14:33N 37°56' E 023°38'0 0.0
2016-Jul-07 13:33N 37°56' E 023°38'0 0.0
2016-Jul-07 12:33N 37°56' E 023°38'0 0.0
2016-Jul-07 11:33N 37°56' E 023°38'0 0.0
2016-Jul-07 10:33N 37°56' E 023°38'0 0.0
2016-Jul-07 09:33N 37°56' E 023°38'0 0.0
2016-Jul-07 08:21N 37°56' E 023°38'0 0.0
2016-Jul-07 07:33N 37°56' E 023°38'0 0.0
2016-Jul-07 06:33N 37°56' E 023°38'0 0.0
2016-Jul-07 05:33N 37°56' E 023°38'0 0.0
2016-Jul-07 04:33N 37°56' E 023°38'0 0.0
2016-Jul-07 03:33N 37°56' E 023°38'1313.0
2016-Jul-07 02:33N 37°44' E 023°43'2020.2
2016-Jul-07 01:33N 37°38' E 024°08'2322.9
2016-Jul-07 00:34N 37°52' E 024°31'2121.1
2016-Jul-06 23:33N 38°02' E 024°55'5 0.2
2016-Jul-05 22:18N 38°02' E 025°00'1621.0
2016-Jul-05 21:32N 37°59' E 024°40'2020.5
2016-Jul-05 20:33N 37°46' E 024°20'2120.4
2016-Jul-05 19:32N 37°37' E 023°57'1919.7
2016-Jul-05 18:33N 37°49' E 023°37'8 7.6
2016-Jul-05 17:33N 37°56' E 023°38'0 0.0
2016-Jul-05 16:33N 37°56' E 023°38'3 2.9
2016-Jul-05 15:34N 37°54' E 023°38'2323.2
2016-Jul-05 14:33N 37°36' E 023°58'3724.8
2016-Jul-05 13:04N 37°31' E 024°44'1711.1
2016-Jul-05 11:33N 37°27' E 025°04'1212.0
2016-Jul-05 10:33N 37°28' E 025°19'2 1.7
2016-Jul-05 09:34N 37°27' E 025°17'2411.8
2016-Jul-05 07:34N 37°32' E 024°48'2724.4
2016-Jul-05 06:28N 37°30' E 024°14'3920.4
2016-Jul-05 04:33N 37°56' E 023°38'0 0.0
2016-Jul-05 03:33N 37°56' E 023°38'0 0.0
2016-Jul-05 02:33N 37°56' E 023°38'1717.4
2016-Jul-05 01:34N 37°41' E 023°47'2222.4
2016-Jul-05 00:34N 37°43' E 024°15'2726.2
2016-Jul-04 23:31N 38°00' E 024°43'  

Dump ship's entire track history